createdAt,value
2023-01-18T00:01:09.646Z,-2.16
2023-01-18T00:04:06.438Z,-2.10
2023-01-18T00:07:03.383Z,-2.13
2023-01-18T00:10:00.168Z,-1.98
2023-01-18T00:12:58.817Z,-2.10
2023-01-18T00:16:04.406Z,-2.13
2023-01-18T00:19:01.179Z,-2.09
2023-01-18T00:21:57.995Z,-2.09
2023-01-18T00:24:54.815Z,-2.06
2023-01-18T00:27:54.697Z,-1.98
2023-01-18T00:30:51.612Z,-1.98
2023-01-18T00:33:49.640Z,-2.02
2023-01-18T00:36:48.240Z,-2.04
2023-01-18T00:39:45.042Z,-2.03
2023-01-18T00:43:00.927Z,-1.95
2023-01-18T00:45:57.828Z,-1.93
2023-01-18T00:48:55.278Z,-2.02
2023-01-18T00:51:52.200Z,-2.01
2023-01-18T00:54:48.961Z,-1.96
2023-01-18T00:57:45.751Z,-2.07
2023-01-18T01:00:42.615Z,-1.96
2023-01-18T01:04:02.217Z,-2.05
2023-01-18T01:06:58.993Z,-2.07
2023-01-18T01:09:57.284Z,-2.01
2023-01-18T01:13:12.814Z,-2.00
2023-01-18T01:16:29.890Z,-2.00
2023-01-18T01:19:46.066Z,-2.03
2023-01-18T01:23:01.643Z,-2.06
2023-01-18T01:26:13.705Z,-2.18
2023-01-18T01:29:10.511Z,-2.16
2023-01-18T01:32:07.437Z,-2.13
2023-01-18T01:35:04.503Z,-2.13
2023-01-18T01:38:01.333Z,-2.06
2023-01-18T01:41:06.339Z,-2.08
2023-01-18T01:44:34.138Z,-2.08
2023-01-18T01:47:38.046Z,-2.07
2023-01-18T01:50:39.035Z,-2.24
2023-01-18T01:53:35.808Z,-2.17
2023-01-18T01:56:32.792Z,-2.10
2023-01-18T01:59:29.568Z,-2.17
2023-01-18T02:02:27.187Z,-2.19
2023-01-18T02:05:24.181Z,-2.16
2023-01-18T02:08:24.432Z,-2.13
2023-01-18T02:11:21.227Z,-2.04
2023-01-18T02:14:19.952Z,-2.06
2023-01-18T02:17:28.365Z,-2.01
2023-01-18T02:20:51.518Z,-1.97
2023-01-18T02:24:25.797Z,-1.90
2023-01-18T02:27:25.663Z,-1.92
2023-01-18T02:30:32.216Z,-1.83
2023-01-18T02:33:44.102Z,-1.79
2023-01-18T02:37:05.760Z,-1.75
2023-01-18T02:40:17.007Z,-1.75
2023-01-18T02:43:34.927Z,-1.68
2023-01-18T02:46:35.937Z,-1.70
2023-01-18T02:49:32.836Z,-1.69
2023-01-18T02:52:47.436Z,-1.74
2023-01-18T02:55:50.797Z,-1.67
2023-01-18T02:58:55.131Z,-1.64
2023-01-18T03:02:01.981Z,-1.65
2023-01-18T03:04:58.971Z,-1.67
2023-01-18T03:08:06.327Z,-1.63
2023-01-18T03:11:09.072Z,-1.57
2023-01-18T03:14:46.493Z,-1.60
2023-01-18T03:17:50.968Z,-1.58
2023-01-18T03:20:52.525Z,-1.59
2023-01-18T03:23:49.961Z,-1.55
2023-01-18T03:26:52.253Z,-1.53
2023-01-18T03:30:07.750Z,-1.53
2023-01-18T03:33:24.086Z,-1.53
2023-01-18T03:36:27.260Z,-1.64
2023-01-18T03:39:36.655Z,-1.67
2023-01-18T03:42:51.434Z,-1.78
2023-01-18T03:45:49.626Z,-1.76
2023-01-18T03:48:46.464Z,-1.65
2023-01-18T03:52:06.364Z,-1.67
2023-01-18T03:55:05.466Z,-1.70
2023-01-18T03:58:07.378Z,-1.69
2023-01-18T04:01:04.952Z,-1.63
2023-01-18T04:04:01.979Z,-1.66
2023-01-18T04:06:59.111Z,-1.66
2023-01-18T04:09:55.873Z,-1.62
2023-01-18T04:12:52.659Z,-1.64
2023-01-18T04:15:49.798Z,-1.66
2023-01-18T04:18:46.582Z,-1.69
2023-01-18T04:21:43.367Z,-1.59
2023-01-18T04:24:40.211Z,-1.64
2023-01-18T04:27:36.999Z,-1.63
2023-01-18T04:30:33.766Z,-1.73
2023-01-18T04:33:30.526Z,-1.71
2023-01-18T04:36:28.386Z,-1.71
2023-01-18T04:39:25.193Z,-1.75
2023-01-18T04:42:21.987Z,-1.74
2023-01-18T04:45:19.673Z,-1.73
2023-01-18T04:48:16.417Z,-1.70
2023-01-18T04:51:14.142Z,-1.71
2023-01-18T04:54:11.940Z,-1.65
2023-01-18T04:57:08.704Z,-1.78
2023-01-18T05:00:08.558Z,-1.69
2023-01-18T05:03:09.963Z,-1.74
2023-01-18T05:06:12.339Z,-1.69
2023-01-18T05:09:11.590Z,-1.75
2023-01-18T05:12:08.630Z,-1.77
2023-01-18T05:15:06.008Z,-1.76
2023-01-18T05:18:02.841Z,-1.82
2023-01-18T05:20:59.843Z,-1.80
2023-01-18T05:23:56.585Z,-1.81
2023-01-18T05:26:53.327Z,-1.83
2023-01-18T05:29:50.322Z,-1.81
2023-01-18T05:32:47.081Z,-1.86
2023-01-18T05:35:54.815Z,-1.82
2023-01-18T05:38:51.557Z,-1.82
2023-01-18T05:41:48.423Z,-1.80
2023-01-18T05:44:45.168Z,-1.85
2023-01-18T05:47:42.000Z,-1.80
2023-01-18T05:50:43.670Z,-1.84
2023-01-18T05:53:41.181Z,-1.82
2023-01-18T05:56:38.064Z,-1.89
2023-01-18T05:59:35.258Z,-1.85
2023-01-18T06:02:32.020Z,-1.82
2023-01-18T06:05:29.314Z,-1.81
2023-01-18T06:08:26.269Z,-1.90
2023-01-18T06:11:23.028Z,-1.79
2023-01-18T06:14:19.886Z,-1.83
2023-01-18T06:17:16.762Z,-1.83
2023-01-18T06:20:14.254Z,-1.95
2023-01-18T06:23:11.028Z,-1.76
2023-01-18T06:26:07.887Z,-1.78
2023-01-18T06:29:04.650Z,-1.85
2023-01-18T06:32:01.744Z,-1.78
2023-01-18T06:34:58.489Z,-1.83
2023-01-18T06:37:56.455Z,-1.95
2023-01-18T06:40:55.922Z,-1.87
2023-01-18T06:43:52.650Z,-1.87
2023-01-18T06:46:49.407Z,-1.96
2023-01-18T06:49:47.942Z,-1.86
2023-01-18T06:52:45.277Z,-1.96
2023-01-18T06:55:42.118Z,-1.93
2023-01-18T06:58:38.866Z,-1.87
2023-01-18T07:01:35.740Z,-1.91
2023-01-18T07:04:34.731Z,-1.91
2023-01-18T07:07:32.537Z,-1.87
2023-01-18T07:10:29.296Z,-1.86
2023-01-18T07:13:26.117Z,-1.85
2023-01-18T07:16:23.226Z,-1.81
2023-01-18T07:19:20.305Z,-1.76
2023-01-18T07:22:17.185Z,-1.83
2023-01-18T07:25:18.218Z,-1.67
2023-01-18T07:28:14.993Z,-1.63
2023-01-18T07:31:11.813Z,-1.75
2023-01-18T07:34:09.751Z,-1.51
2023-01-18T07:37:06.521Z,-1.63
2023-01-18T07:40:03.682Z,-1.64
2023-01-18T07:43:01.003Z,-1.66
2023-01-18T07:45:58.379Z,-1.57
2023-01-18T07:48:55.154Z,-1.66
2023-01-18T07:51:54.999Z,-1.55
2023-01-18T07:54:51.886Z,-1.44
2023-01-18T07:57:48.645Z,-1.41
2023-01-18T08:00:45.721Z,-1.30
2023-01-18T08:03:44.124Z,-1.32
2023-01-18T08:06:40.902Z,-1.34
2023-01-18T08:09:37.648Z,-1.43
2023-01-18T08:12:34.461Z,-1.39
2023-01-18T08:15:31.536Z,-1.40
2023-01-18T08:18:28.594Z,-1.37
2023-01-18T08:21:25.455Z,-1.45
2023-01-18T08:24:22.193Z,-1.30
2023-01-18T08:27:18.982Z,-1.28
2023-01-18T08:30:16.032Z,-1.18
2023-01-18T08:33:13.259Z,-1.33
2023-01-18T08:36:11.599Z,-1.35
2023-01-18T08:39:08.389Z,-1.38
2023-01-18T08:42:05.731Z,-1.16
2023-01-18T08:45:02.704Z,-1.08
2023-01-18T08:48:01.776Z,-1.14
2023-01-18T08:51:02.849Z,-1.02
2023-01-18T08:53:59.908Z,-1.00
2023-01-18T08:56:56.956Z,-0.95
2023-01-18T08:59:56.133Z,-0.99
2023-01-18T09:02:52.898Z,-1.00
2023-01-18T09:05:49.910Z,-1.00
2023-01-18T09:08:47.890Z,-0.71
2023-01-18T09:11:44.670Z,-0.78
2023-01-18T09:14:41.399Z,-0.81
2023-01-18T09:17:38.611Z,-0.68
2023-01-18T09:20:36.339Z,-0.82
2023-01-18T09:23:33.251Z,-0.68
2023-01-18T09:26:30.525Z,-0.69
2023-01-18T09:29:27.399Z,-0.68
2023-01-18T09:32:25.488Z,-0.66
2023-01-18T09:35:22.823Z,-0.68
2023-01-18T09:38:19.715Z,-0.75
2023-01-18T09:41:39.245Z,-0.59
2023-01-18T09:44:40.969Z,-0.69
2023-01-18T09:47:46.374Z,-0.43
2023-01-18T09:50:43.916Z,-0.66
2023-01-18T09:53:46.991Z,-0.61
2023-01-18T09:57:09.044Z,-0.45
2023-01-18T10:00:25.454Z,-0.46
2023-01-18T10:03:46.869Z,-0.37
2023-01-18T10:10:07.003Z,-0.61
2023-01-18T10:13:27.526Z,-0.51
2023-01-18T10:16:25.281Z,-0.65
2023-01-18T10:19:41.497Z,-0.43
2023-01-18T10:22:46.569Z,-0.58
2023-01-18T10:25:48.601Z,-0.55
2023-01-18T10:29:12.437Z,-0.46
2023-01-18T10:32:15.836Z,-0.25
2023-01-18T10:35:24.793Z,-0.37
2023-01-18T10:38:25.019Z,-0.24
2023-01-18T10:41:27.744Z,-0.49
2023-01-18T10:44:24.725Z,-0.43
2023-01-18T10:47:21.524Z,-0.45
2023-01-18T10:50:34.462Z,-0.48
2023-01-18T10:53:37.074Z,-0.56
2023-01-18T10:56:33.904Z,-0.48
2023-01-18T10:59:40.843Z,-0.52
2023-01-18T11:02:38.680Z,-0.49
2023-01-18T11:05:39.985Z,-0.47
2023-01-18T11:08:36.846Z,-0.29
2023-01-18T11:11:52.023Z,-0.25
2023-01-18T11:14:48.920Z,-0.47
2023-01-18T11:17:56.301Z,-0.49
2023-01-18T11:20:55.567Z,-0.26
2023-01-18T11:23:53.173Z,-0.32
2023-01-18T11:26:53.948Z,-0.17
2023-01-18T11:29:50.928Z,-0.29
2023-01-18T11:32:50.093Z,-0.25
2023-01-18T11:35:52.387Z,0.13
2023-01-18T11:38:49.197Z,0.10
2023-01-18T11:41:45.991Z,0.06
2023-01-18T11:45:17.800Z,-0.38
2023-01-18T11:48:42.279Z,-0.13
2023-01-18T11:51:52.100Z,-0.17
2023-01-18T11:54:53.701Z,-0.14
2023-01-18T11:57:51.905Z,0.25
2023-01-18T12:00:59.122Z,0.04
2023-01-18T12:04:03.028Z,-0.05
2023-01-18T12:07:29.195Z,-0.19
2023-01-18T12:10:45.460Z,0.29
2023-01-18T12:13:47.018Z,0.19
2023-01-18T12:17:24.854Z,0.12
2023-01-18T12:20:36.256Z,-0.06
2023-01-18T12:23:59.688Z,0.44
2023-01-18T12:26:59.577Z,0.57
2023-01-18T12:30:24.158Z,0.38
2023-01-18T12:33:43.534Z,-0.12
2023-01-18T12:37:13.513Z,0.05
2023-01-18T12:40:29.018Z,0.15
2023-01-18T12:43:48.262Z,-0.25
2023-01-18T12:46:59.703Z,-0.37
2023-01-18T12:49:59.855Z,-0.37
2023-01-18T12:53:02.296Z,-0.33
2023-01-18T12:56:04.166Z,-0.09
2023-01-18T12:59:06.539Z,0.06
2023-01-18T13:02:33.460Z,-0.02
2023-01-18T13:05:56.060Z,-0.25
2023-01-18T13:09:16.239Z,-0.43
2023-01-18T13:12:13.880Z,-0.46
2023-01-18T13:15:25.835Z,-0.42
2023-01-18T13:18:42.477Z,-0.50
2023-01-18T13:21:53.313Z,-0.45
2023-01-18T13:25:09.359Z,-0.46
2023-01-18T13:28:32.235Z,-0.46
2023-01-18T13:31:32.145Z,-0.48
2023-01-18T13:34:47.998Z,-0.67
2023-01-18T13:37:57.806Z,-0.50
2023-01-18T13:41:01.254Z,-0.63
2023-01-18T13:44:26.818Z,-0.65
2023-01-18T13:47:35.759Z,-0.29
2023-01-18T13:50:34.449Z,-0.29
2023-01-18T13:53:52.240Z,-0.19
2023-01-18T13:57:12.016Z,-0.14
2023-01-18T14:00:24.462Z,-0.40
2023-01-18T14:03:30.210Z,-0.30
2023-01-18T14:06:31.275Z,-0.29
2023-01-18T14:09:49.027Z,-0.09
2023-01-18T14:12:53.364Z,-0.35
2023-01-18T14:15:53.258Z,-0.19
2023-01-18T14:18:53.701Z,0.09
2023-01-18T14:22:02.388Z,0.10
2023-01-18T14:25:08.342Z,0.26
2023-01-18T14:28:13.906Z,0.13
2023-01-18T14:31:16.777Z,-0.27
2023-01-18T14:34:28.788Z,-0.01
2023-01-18T14:37:34.144Z,0.01
2023-01-18T14:40:31.077Z,-0.08
2023-01-18T14:43:33.958Z,-0.03
2023-01-18T14:46:30.876Z,-0.15
2023-01-18T14:49:35.277Z,-0.25
2023-01-18T14:52:34.219Z,-0.20
2023-01-18T14:55:33.108Z,-0.55
2023-01-18T14:58:33.288Z,-0.66
2023-01-18T15:01:38.901Z,-0.70
2023-01-18T15:04:39.046Z,-0.55
2023-01-18T15:07:38.617Z,-0.90
2023-01-18T15:10:36.914Z,-0.71
2023-01-18T15:13:39.023Z,-0.60
2023-01-18T15:16:36.053Z,-0.84
2023-01-18T15:19:38.622Z,-0.84
2023-01-18T15:22:38.845Z,-1.07
2023-01-18T15:25:35.698Z,-1.13
2023-01-18T15:28:36.369Z,-0.97
2023-01-18T15:31:46.345Z,-0.72
2023-01-18T15:34:45.549Z,-1.05
2023-01-18T15:37:42.442Z,-1.17
2023-01-18T15:40:51.354Z,-1.28
2023-01-18T15:43:48.903Z,-1.44
2023-01-18T15:46:45.717Z,-1.67
2023-01-18T15:49:44.770Z,-1.82
2023-01-18T15:52:45.060Z,-1.96
2023-01-18T15:55:54.072Z,-2.09
2023-01-18T15:58:56.004Z,-2.10
2023-01-18T16:02:13.922Z,-2.09
2023-01-18T16:05:13.824Z,-2.20
2023-01-18T16:08:20.495Z,-2.24
2023-01-18T16:11:30.147Z,-2.39
2023-01-18T16:14:27.715Z,-2.37
2023-01-18T16:17:25.738Z,-2.46
2023-01-18T16:20:22.515Z,-2.63
2023-01-18T16:23:20.493Z,-2.65
2023-01-18T16:26:23.055Z,-2.81
2023-01-18T16:29:19.996Z,-2.74
2023-01-18T16:32:22.826Z,-2.74
2023-01-18T16:35:23.840Z,-2.79
2023-01-18T16:38:20.661Z,-2.80
2023-01-18T16:41:17.777Z,-2.93
2023-01-18T16:44:14.536Z,-3.03
2023-01-18T16:47:12.439Z,-3.04
2023-01-18T16:50:16.756Z,-3.03
2023-01-18T16:53:13.629Z,-3.21
2023-01-18T16:56:14.503Z,-3.25
2023-01-18T16:59:16.343Z,-3.39
2023-01-18T17:02:13.793Z,-3.55
2023-01-18T17:05:10.839Z,-3.59
2023-01-18T17:08:12.813Z,-3.59
2023-01-18T17:11:12.356Z,-3.58
2023-01-18T17:14:09.104Z,-3.53
2023-01-18T17:17:07.478Z,-3.54
2023-01-18T17:20:32.686Z,-3.63
2023-01-18T17:23:29.809Z,-3.75
2023-01-18T17:26:26.603Z,-3.76
2023-01-18T17:29:23.414Z,-3.93
2023-01-18T17:32:20.169Z,-3.96
2023-01-18T17:35:20.056Z,-3.99
2023-01-18T17:38:24.260Z,-4.01
2023-01-18T17:41:27.636Z,-4.06
2023-01-18T17:44:36.496Z,-4.17
2023-01-18T17:47:34.739Z,-4.28
2023-01-18T17:50:31.567Z,-4.31
2023-01-18T17:53:28.365Z,-4.24
2023-01-18T17:56:25.548Z,-4.52
2023-01-18T17:59:22.485Z,-4.46
2023-01-18T18:02:19.338Z,-4.60
2023-01-18T18:05:16.314Z,-4.65
2023-01-18T18:08:13.109Z,-4.71
2023-01-18T18:11:12.169Z,-4.81
2023-01-18T18:14:09.144Z,-4.66
2023-01-18T18:17:06.579Z,-4.55
2023-01-18T18:20:04.292Z,-4.68
2023-01-18T18:23:01.673Z,-4.89
2023-01-18T18:25:59.168Z,-4.95
2023-01-18T18:28:55.908Z,-4.96
2023-01-18T18:31:52.741Z,-5.10
2023-01-18T18:34:49.498Z,-5.13
2023-01-18T18:37:47.126Z,-5.12
2023-01-18T18:40:44.161Z,-5.08
2023-01-18T18:43:40.909Z,-5.24
2023-01-18T18:46:37.925Z,-5.24
2023-01-18T18:49:34.719Z,-5.45
2023-01-18T18:52:31.587Z,-5.53
2023-01-18T18:55:28.344Z,-5.40
2023-01-18T18:58:25.273Z,-5.57
2023-01-18T19:01:27.379Z,-5.57
2023-01-18T19:04:24.445Z,-5.69
2023-01-18T19:07:21.225Z,-5.79
2023-01-18T19:10:18.441Z,-5.97
2023-01-18T19:13:15.234Z,-5.85
2023-01-18T19:16:12.549Z,-5.90
2023-01-18T19:19:09.754Z,-5.45
2023-01-18T19:22:06.513Z,-5.55
2023-01-18T19:25:04.249Z,-5.85
2023-01-18T19:28:01.042Z,-5.82
2023-01-18T19:31:02.537Z,-5.74
2023-01-18T19:33:59.311Z,-5.80
2023-01-18T19:36:56.085Z,-6.17
2023-01-18T19:39:52.830Z,-6.15
2023-01-18T19:42:55.652Z,-6.28
2023-01-18T19:45:53.020Z,-6.40
2023-01-18T19:48:55.086Z,-6.09
2023-01-18T19:51:53.077Z,-6.11
2023-01-18T19:54:49.993Z,-5.78
2023-01-18T19:57:46.827Z,-6.06
2023-01-18T20:00:43.596Z,-6.12
2023-01-18T20:03:41.052Z,-6.34
2023-01-18T20:06:38.568Z,-6.44
2023-01-18T20:09:43.167Z,-6.60
2023-01-18T20:12:40.348Z,-6.67
2023-01-18T20:15:39.583Z,-6.61
2023-01-18T20:18:38.124Z,-6.73
2023-01-18T20:21:34.917Z,-6.54
2023-01-18T20:24:31.710Z,-6.32
2023-01-18T20:27:28.558Z,-6.70
2023-01-18T20:30:25.414Z,-6.45
2023-01-18T20:33:22.958Z,-6.59
2023-01-18T20:36:19.722Z,-6.61
2023-01-18T20:39:17.639Z,-6.68
2023-01-18T20:42:15.465Z,-6.91
2023-01-18T20:45:12.378Z,-6.72
2023-01-18T20:48:09.145Z,-7.05
2023-01-18T20:51:07.448Z,-7.03
2023-01-18T20:54:05.024Z,-6.80
2023-01-18T20:57:02.052Z,-7.09
2023-01-18T20:59:58.835Z,-6.99
2023-01-18T21:02:55.694Z,-7.05
2023-01-18T21:05:53.384Z,-7.33
2023-01-18T21:08:54.407Z,-7.28
2023-01-18T21:11:51.229Z,-7.26
2023-01-18T21:14:48.061Z,-7.32
2023-01-18T21:17:44.815Z,-7.39
2023-01-18T21:20:41.589Z,-7.28
2023-01-18T21:23:41.716Z,-7.24
2023-01-18T21:26:38.514Z,-7.48
2023-01-18T21:29:35.439Z,-7.46
2023-01-18T21:32:32.200Z,-7.57
2023-01-18T21:35:29.794Z,-7.52
2023-01-18T21:38:27.058Z,-7.60
2023-01-18T21:41:42.396Z,-7.69
2023-01-18T21:44:57.854Z,-7.75
2023-01-18T21:47:54.614Z,-7.84
2023-01-18T21:51:10.086Z,-7.77
2023-01-18T21:54:14.764Z,-7.58
2023-01-18T21:57:11.547Z,-7.72
2023-01-18T22:00:08.896Z,-7.85
2023-01-18T22:03:06.266Z,-7.96
2023-01-18T22:06:03.198Z,-8.02
2023-01-18T22:09:00.030Z,-7.14
2023-01-18T22:11:57.507Z,-7.50
2023-01-18T22:14:54.518Z,-7.76
2023-01-18T22:17:51.279Z,-7.80
2023-01-18T22:20:56.415Z,-7.97
2023-01-18T22:23:53.706Z,-7.96
2023-01-18T22:26:50.508Z,-7.88
2023-01-18T22:29:47.249Z,-7.87
2023-01-18T22:32:44.015Z,-7.39
2023-01-18T22:35:41.162Z,-7.66
2023-01-18T22:38:38.551Z,-7.87
2023-01-18T22:41:35.414Z,-7.91
2023-01-18T22:44:32.815Z,-7.88
2023-01-18T22:47:29.867Z,-7.88
2023-01-18T22:50:26.618Z,-7.89
2023-01-18T22:53:24.218Z,-7.95
2023-01-18T22:56:23.008Z,-8.15
2023-01-18T22:59:19.762Z,-8.07
2023-01-18T23:02:16.523Z,-8.24
2023-01-18T23:05:13.330Z,-8.08
2023-01-18T23:08:10.863Z,-8.04
2023-01-18T23:11:11.860Z,-7.89
2023-01-18T23:14:27.201Z,-8.41
2023-01-18T23:17:38.844Z,-8.47
2023-01-18T23:20:36.577Z,-7.92
2023-01-18T23:23:33.307Z,-7.95
2023-01-18T23:26:30.051Z,-8.37
2023-01-18T23:29:26.793Z,-8.45
2023-01-18T23:32:30.304Z,-8.46
2023-01-18T23:35:27.100Z,-8.50
2023-01-18T23:38:23.848Z,-8.60
2023-01-18T23:41:39.180Z,-8.48
2023-01-18T23:44:54.563Z,-7.74
2023-01-18T23:48:09.813Z,-8.31
2023-01-18T23:51:27.213Z,-8.65
2023-01-18T23:54:24.646Z,-8.64
2023-01-18T23:57:21.391Z,-8.66
